<?xml version='1.0' encoding='UTF-8'?><gpx version="1.1" creator="JPX - https://github.com/jenetics/jpx" xmlns="http://www.topografix.com/GPX/1/1"><trk><trkseg><trkpt lat="45.3186871" lon="10.4790047"><ele>57.0</ele><time>2026-04-17T04:45:13.414Z</time></trkpt><trkpt lat="45.3187034" lon="10.4791041"><ele>57.0</ele><time>2026-04-17T04:45:22.467Z</time></trkpt><trkpt lat="45.3183393" lon="10.4787579"><ele>56.42857142857142</ele><time>2026-04-17T04:46:12.414Z</time></trkpt><trkpt lat="45.3183823" lon="10.4786862"><ele>55.85714285714285</ele><time>2026-04-17T04:46:13.414Z</time></trkpt><trkpt lat="45.3184293" lon="10.4786166"><ele>55.285714285714285</ele><time>2026-04-17T04:46:14.413Z</time></trkpt><trkpt lat="45.3184781" lon="10.4785455"><ele>54.71428571428571</ele><time>2026-04-17T04:46:15.413Z</time></trkpt><trkpt lat="45.3185361" lon="10.4784704"><ele>54.14285714285714</ele><time>2026-04-17T04:46:16.413Z</time></trkpt><trkpt lat="45.3185961" lon="10.4783933"><ele>53.57142857142857</ele><time>2026-04-17T04:46:17.413Z</time></trkpt><trkpt lat="45.3186539" lon="10.4783198"><ele>53.0</ele><time>2026-04-17T04:46:18.414Z</time></trkpt><trkpt lat="45.31871" lon="10.4782439"><ele>53.00000000000001</ele><time>2026-04-17T04:46:19.414Z</time></trkpt><trkpt lat="45.3187686" lon="10.4781664"><ele>53.0</ele><time>2026-04-17T04:46:20.414Z</time></trkpt><trkpt lat="45.3188306" lon="10.4780824"><ele>53.0</ele><time>2026-04-17T04:46:21.414Z</time></trkpt><trkpt lat="45.3188963" lon="10.4779971"><ele>53.0</ele><time>2026-04-17T04:46:22.413Z</time></trkpt><trkpt lat="45.3189576" lon="10.4779123"><ele>53.00000000000001</ele><time>2026-04-17T04:46:23.414Z</time></trkpt><trkpt lat="45.3190183" lon="10.4778256"><ele>53.0</ele><time>2026-04-17T04:46:24.413Z</time></trkpt><trkpt lat="45.3190767" lon="10.4777401"><ele>52.833333333333336</ele><time>2026-04-17T04:46:25.413Z</time></trkpt><trkpt lat="45.3191322" lon="10.4776501"><ele>52.66666666666667</ele><time>2026-04-17T04:46:26.414Z</time></trkpt><trkpt lat="45.3191932" lon="10.4775553"><ele>52.5</ele><time>2026-04-17T04:46:27.413Z</time></trkpt><trkpt lat="45.3192558" lon="10.4774671"><ele>52.33333333333333</ele><time>2026-04-17T04:46:28.413Z</time></trkpt><trkpt lat="45.3193216" lon="10.4774024"><ele>52.166666666666664</ele><time>2026-04-17T04:46:29.413Z</time></trkpt><trkpt lat="45.3194039" lon="10.4773745"><ele>52.0</ele><time>2026-04-17T04:46:30.414Z</time></trkpt><trkpt lat="45.319499" lon="10.4773961"><ele>51.99999999999999</ele><time>2026-04-17T04:46:31.414Z</time></trkpt><trkpt lat="45.3195873" lon="10.4774259"><ele>52.0</ele><time>2026-04-17T04:46:32.414Z</time></trkpt><trkpt lat="45.319677" lon="10.4774471"><ele>52.0</ele><time>2026-04-17T04:46:33.413Z</time></trkpt><trkpt lat="45.3197652" lon="10.4774753"><ele>52.0</ele><time>2026-04-17T04:46:34.414Z</time></trkpt><trkpt lat="45.319841" lon="10.4774952"><ele>51.99999999999999</ele><time>2026-04-17T04:46:35.413Z</time></trkpt><trkpt lat="45.3199304" lon="10.4775199"><ele>52.0</ele><time>2026-04-17T04:46:36.414Z</time></trkpt><trkpt lat="45.3199991" lon="10.4775339"><ele>52.49999999999999</ele><time>2026-04-17T04:46:37.414Z</time></trkpt><trkpt lat="45.3200684" lon="10.4775132"><ele>53.0</ele><time>2026-04-17T04:46:38.414Z</time></trkpt><trkpt lat="45.3201265" lon="10.4774552"><ele>53.5</ele><time>2026-04-17T04:46:39.413Z</time></trkpt><trkpt lat="45.3201641" lon="10.477372"><ele>54.0</ele><time>2026-04-17T04:46:40.414Z</time></trkpt><trkpt lat="45.3201963" lon="10.4772779"><ele>54.49999999999999</ele><time>2026-04-17T04:46:41.413Z</time></trkpt><trkpt lat="45.320218" lon="10.4771707"><ele>55.0</ele><time>2026-04-17T04:46:42.414Z</time></trkpt><trkpt lat="45.3202545" lon="10.4770316"><ele>55.25</ele><time>2026-04-17T04:46:43.413Z</time></trkpt><trkpt lat="45.3202945" lon="10.4768868"><ele>55.5</ele><time>2026-04-17T04:46:44.413Z</time></trkpt><trkpt lat="45.3203306" lon="10.4767253"><ele>55.75</ele><time>2026-04-17T04:46:45.414Z</time></trkpt><trkpt lat="45.3203722" lon="10.4765759"><ele>56.0</ele><time>2026-04-17T04:46:46.413Z</time></trkpt><trkpt lat="45.3204122" lon="10.4764293"><ele>56.0</ele><time>2026-04-17T04:46:47.414Z</time></trkpt><trkpt lat="45.3204589" lon="10.4762705"><ele>56.0</ele><time>2026-04-17T04:46:48.413Z</time></trkpt><trkpt lat="45.3205123" lon="10.476112"><ele>56.0</ele><time>2026-04-17T04:46:49.414Z</time></trkpt><trkpt lat="45.3205657" lon="10.4759501"><ele>56.0</ele><time>2026-04-17T04:46:50.414Z</time></trkpt><trkpt lat="45.3206188" lon="10.4757809"><ele>56.0</ele><time>2026-04-17T04:46:51.414Z</time></trkpt><trkpt lat="45.3206694" lon="10.4756101"><ele>56.0</ele><time>2026-04-17T04:46:52.413Z</time></trkpt><trkpt lat="45.3207245" lon="10.4754338"><ele>56.0</ele><time>2026-04-17T04:46:53.413Z</time></trkpt><trkpt lat="45.3207778" lon="10.4752547"><ele>56.0</ele><time>2026-04-17T04:46:54.413Z</time></trkpt><trkpt lat="45.3208292" lon="10.4750748"><ele>55.75</ele><time>2026-04-17T04:46:55.413Z</time></trkpt><trkpt lat="45.3208854" lon="10.4748867"><ele>55.5</ele><time>2026-04-17T04:46:56.413Z</time></trkpt><trkpt lat="45.320937" lon="10.4746965"><ele>55.25</ele><time>2026-04-17T04:46:57.413Z</time></trkpt><trkpt lat="45.320994" lon="10.4745106"><ele>55.0</ele><time>2026-04-17T04:46:58.412Z</time></trkpt><trkpt lat="45.3210544" lon="10.4743202"><ele>55.0</ele><time>2026-04-17T04:46:59.412Z</time></trkpt><trkpt lat="45.3211107" lon="10.4741316"><ele>55.0</ele><time>2026-04-17T04:47:00.412Z</time></trkpt><trkpt lat="45.3211717" lon="10.4739459"><ele>55.0</ele><time>2026-04-17T04:47:01.413Z</time></trkpt><trkpt lat="45.3212289" lon="10.4737622"><ele>55.0</ele><time>2026-04-17T04:47:02.412Z</time></trkpt><trkpt lat="45.321279" lon="10.47358"><ele>55.0</ele><time>2026-04-17T04:47:03.412Z</time></trkpt><trkpt lat="45.3213303" lon="10.473403"><ele>55.0</ele><time>2026-04-17T04:47:04.412Z</time></trkpt><trkpt lat="45.3213765" lon="10.4732305"><ele>55.0</ele><time>2026-04-17T04:47:05.412Z</time></trkpt><trkpt lat="45.3214205" lon="10.4730556"><ele>55.0</ele><time>2026-04-17T04:47:06.413Z</time></trkpt><trkpt lat="45.3214679" lon="10.4728915"><ele>55.2</ele><time>2026-04-17T04:47:07.413Z</time></trkpt><trkpt lat="45.3215143" lon="10.472733"><ele>55.4</ele><time>2026-04-17T04:47:08.413Z</time></trkpt><trkpt lat="45.3215604" lon="10.4725857"><ele>55.599999999999994</ele><time>2026-04-17T04:47:09.412Z</time></trkpt><trkpt lat="45.3216021" lon="10.4724588"><ele>55.8</ele><time>2026-04-17T04:47:10.412Z</time></trkpt><trkpt lat="45.3216292" lon="10.4723443"><ele>56.0</ele><time>2026-04-17T04:47:11.413Z</time></trkpt><trkpt lat="45.3216509" lon="10.4722526"><ele>56.00000000000001</ele><time>2026-04-17T04:47:12.413Z</time></trkpt><trkpt lat="45.3216488" lon="10.472146"><ele>56.0</ele><time>2026-04-17T04:47:15.413Z</time></trkpt><trkpt lat="45.3215815" lon="10.4720967"><ele>56.0</ele><time>2026-04-17T04:47:18.413Z</time></trkpt><trkpt lat="45.3214658" lon="10.4720981"><ele>56.0</ele><time>2026-04-17T04:47:20.412Z</time></trkpt><trkpt lat="45.3213864" lon="10.4720891"><ele>56.00000000000001</ele><time>2026-04-17T04:47:21.412Z</time></trkpt><trkpt lat="45.3212949" lon="10.4720734"><ele>56.0</ele><time>2026-04-17T04:47:22.412Z</time></trkpt><trkpt lat="45.3211975" lon="10.4720642"><ele>55.5</ele><time>2026-04-17T04:47:23.413Z</time></trkpt><trkpt lat="45.3210956" lon="10.4720497"><ele>55.0</ele><time>2026-04-17T04:47:24.413Z</time></trkpt><trkpt lat="45.3209869" lon="10.4720529"><ele>54.5</ele><time>2026-04-17T04:47:25.413Z</time></trkpt><trkpt lat="45.3208679" lon="10.4720321"><ele>54.0</ele><time>2026-04-17T04:47:26.413Z</time></trkpt><trkpt lat="45.3207347" lon="10.4720108"><ele>54.0</ele><time>2026-04-17T04:47:27.412Z</time></trkpt><trkpt lat="45.3205886" lon="10.4719859"><ele>54.0</ele><time>2026-04-17T04:47:28.413Z</time></trkpt><trkpt lat="45.3204332" lon="10.471962"><ele>54.0</ele><time>2026-04-17T04:47:29.413Z</time></trkpt><trkpt lat="45.320275" lon="10.4719345"><ele>54.0</ele><time>2026-04-17T04:47:30.412Z</time></trkpt><trkpt lat="45.3201204" lon="10.4719108"><ele>54.0</ele><time>2026-04-17T04:47:31.413Z</time></trkpt><trkpt lat="45.3199663" lon="10.4718895"><ele>54.0</ele><time>2026-04-17T04:47:32.413Z</time></trkpt><trkpt lat="45.3198131" lon="10.471869"><ele>53.66666666666667</ele><time>2026-04-17T04:47:33.412Z</time></trkpt><trkpt lat="45.3196614" lon="10.4718541"><ele>53.333333333333336</ele><time>2026-04-17T04:47:34.413Z</time></trkpt><trkpt lat="45.3195038" lon="10.4718291"><ele>53.0</ele><time>2026-04-17T04:47:35.412Z</time></trkpt><trkpt lat="45.3193439" lon="10.4718114"><ele>53.0</ele><time>2026-04-17T04:47:36.413Z</time></trkpt><trkpt lat="45.3191846" lon="10.4717894"><ele>53.0</ele><time>2026-04-17T04:47:37.413Z</time></trkpt><trkpt lat="45.3190268" lon="10.4717666"><ele>53.0</ele><time>2026-04-17T04:47:38.412Z</time></trkpt><trkpt lat="45.3188698" lon="10.4717445"><ele>53.0</ele><time>2026-04-17T04:47:39.412Z</time></trkpt><trkpt lat="45.3187147" lon="10.4717265"><ele>53.0</ele><time>2026-04-17T04:47:40.412Z</time></trkpt><trkpt lat="45.3185562" lon="10.4717079"><ele>53.0</ele><time>2026-04-17T04:47:41.413Z</time></trkpt><trkpt lat="45.3183978" lon="10.4716907"><ele>53.0</ele><time>2026-04-17T04:47:42.412Z</time></trkpt><trkpt lat="45.318239" lon="10.471678"><ele>53.0</ele><time>2026-04-17T04:47:43.413Z</time></trkpt><trkpt lat="45.3180779" lon="10.4716604"><ele>53.0</ele><time>2026-04-17T04:47:44.413Z</time></trkpt><trkpt lat="45.3179099" lon="10.4716397"><ele>53.0</ele><time>2026-04-17T04:47:45.413Z</time></trkpt><trkpt lat="45.3177366" lon="10.4716174"><ele>53.0</ele><time>2026-04-17T04:47:46.413Z</time></trkpt><trkpt lat="45.317565" lon="10.4716006"><ele>53.0</ele><time>2026-04-17T04:47:47.412Z</time></trkpt><trkpt lat="45.3173937" lon="10.4715744"><ele>52.66666666666667</ele><time>2026-04-17T04:47:48.413Z</time></trkpt><trkpt lat="45.3172186" lon="10.4715477"><ele>52.33333333333333</ele><time>2026-04-17T04:47:49.413Z</time></trkpt><trkpt lat="45.3170394" lon="10.4715243"><ele>52.0</ele><time>2026-04-17T04:47:50.413Z</time></trkpt><trkpt lat="45.3168617" lon="10.4715006"><ele>52.0</ele><time>2026-04-17T04:47:51.412Z</time></trkpt><trkpt lat="45.316681" lon="10.4714772"><ele>52.0</ele><time>2026-04-17T04:47:52.412Z</time></trkpt><trkpt lat="45.316497" lon="10.4714484"><ele>52.0</ele><time>2026-04-17T04:47:53.413Z</time></trkpt><trkpt lat="45.3163121" lon="10.471423"><ele>52.0</ele><time>2026-04-17T04:47:54.412Z</time></trkpt><trkpt lat="45.3161294" lon="10.4713971"><ele>52.0</ele><time>2026-04-17T04:47:55.412Z</time></trkpt><trkpt lat="45.3159434" lon="10.4713723"><ele>52.0</ele><time>2026-04-17T04:47:56.412Z</time></trkpt><trkpt lat="45.3157605" lon="10.4713499"><ele>52.0</ele><time>2026-04-17T04:47:57.413Z</time></trkpt><trkpt lat="45.3155747" lon="10.4713267"><ele>52.0</ele><time>2026-04-17T04:47:58.412Z</time></trkpt><trkpt lat="45.3153901" lon="10.4713018"><ele>52.0</ele><time>2026-04-17T04:47:59.412Z</time></trkpt><trkpt lat="45.3152086" lon="10.4712789"><ele>52.0</ele><time>2026-04-17T04:48:00.413Z</time></trkpt><trkpt lat="45.3150222" lon="10.4712559"><ele>52.0</ele><time>2026-04-17T04:48:01.413Z</time></trkpt><trkpt lat="45.3148294" lon="10.4712314"><ele>52.0</ele><time>2026-04-17T04:48:02.413Z</time></trkpt><trkpt lat="45.3146362" lon="10.4712065"><ele>51.666666666666664</ele><time>2026-04-17T04:48:03.412Z</time></trkpt><trkpt lat="45.3144445" lon="10.4711832"><ele>51.33333333333333</ele><time>2026-04-17T04:48:04.412Z</time></trkpt><trkpt lat="45.3142492" lon="10.4711607"><ele>51.0</ele><time>2026-04-17T04:48:05.412Z</time></trkpt><trkpt lat="45.3140541" lon="10.4711382"><ele>51.0</ele><time>2026-04-17T04:48:06.413Z</time></trkpt><trkpt lat="45.3138537" lon="10.4711165"><ele>51.0</ele><time>2026-04-17T04:48:07.413Z</time></trkpt><trkpt lat="45.3136486" lon="10.4710895"><ele>51.0</ele><time>2026-04-17T04:48:08.413Z</time></trkpt><trkpt lat="45.3134429" lon="10.471066"><ele>51.0</ele><time>2026-04-17T04:48:09.413Z</time></trkpt><trkpt lat="45.3132386" lon="10.4710391"><ele>51.0</ele><time>2026-04-17T04:48:10.412Z</time></trkpt><trkpt lat="45.3130335" lon="10.4710117"><ele>51.0</ele><time>2026-04-17T04:48:11.413Z</time></trkpt><trkpt lat="45.312827" lon="10.4709889"><ele>51.0</ele><time>2026-04-17T04:48:12.413Z</time></trkpt><trkpt lat="45.312622" lon="10.4709664"><ele>51.0</ele><time>2026-04-17T04:48:13.413Z</time></trkpt><trkpt lat="45.3124142" lon="10.4709439"><ele>51.0</ele><time>2026-04-17T04:48:14.413Z</time></trkpt><trkpt lat="45.3122071" lon="10.4709259"><ele>51.0</ele><time>2026-04-17T04:48:15.413Z</time></trkpt><trkpt lat="45.3120035" lon="10.4709079"><ele>51.0</ele><time>2026-04-17T04:48:16.412Z</time></trkpt><trkpt lat="45.3118006" lon="10.470887"><ele>51.0</ele><time>2026-04-17T04:48:17.413Z</time></trkpt><trkpt lat="45.3115927" lon="10.4708684"><ele>50.66666666666667</ele><time>2026-04-17T04:48:18.412Z</time></trkpt><trkpt lat="45.3113848" lon="10.4708492"><ele>50.333333333333336</ele><time>2026-04-17T04:48:19.413Z</time></trkpt><trkpt lat="45.3111799" lon="10.4708206"><ele>50.0</ele><time>2026-04-17T04:48:20.413Z</time></trkpt><trkpt lat="45.3109743" lon="10.47079"><ele>50.0</ele><time>2026-04-17T04:48:21.412Z</time></trkpt><trkpt lat="45.3107682" lon="10.470765"><ele>50.0</ele><time>2026-04-17T04:48:22.413Z</time></trkpt><trkpt lat="45.3105595" lon="10.4707405"><ele>50.0</ele><time>2026-04-17T04:48:23.412Z</time></trkpt><trkpt lat="45.3103527" lon="10.4707094"><ele>50.0</ele><time>2026-04-17T04:48:24.412Z</time></trkpt><trkpt lat="45.3101413" lon="10.4706709"><ele>50.0</ele><time>2026-04-17T04:48:25.413Z</time></trkpt><trkpt lat="45.3099361" lon="10.4706471"><ele>50.0</ele><time>2026-04-17T04:48:26.413Z</time></trkpt><trkpt lat="45.3097325" lon="10.4706294"><ele>49.66666666666667</ele><time>2026-04-17T04:48:27.412Z</time></trkpt><trkpt lat="45.3095406" lon="10.4706306"><ele>49.33333333333333</ele><time>2026-04-17T04:48:28.413Z</time></trkpt><trkpt lat="45.3093497" lon="10.4706548"><ele>49.0</ele><time>2026-04-17T04:48:29.413Z</time></trkpt><trkpt lat="45.3091614" lon="10.4707195"><ele>49.0</ele><time>2026-04-17T04:48:30.413Z</time></trkpt><trkpt lat="45.3089782" lon="10.4708057"><ele>49.0</ele><time>2026-04-17T04:48:31.412Z</time></trkpt><trkpt lat="45.3087956" lon="10.4709109"><ele>49.0</ele><time>2026-04-17T04:48:32.412Z</time></trkpt><trkpt lat="45.3086023" lon="10.4710204"><ele>49.666666666666664</ele><time>2026-04-17T04:48:33.412Z</time></trkpt><trkpt lat="45.3084132" lon="10.4711332"><ele>50.33333333333333</ele><time>2026-04-17T04:48:34.412Z</time></trkpt><trkpt lat="45.3082257" lon="10.4712505"><ele>51.0</ele><time>2026-04-17T04:48:35.413Z</time></trkpt><trkpt lat="45.3080393" lon="10.4713694"><ele>51.33333333333333</ele><time>2026-04-17T04:48:36.412Z</time></trkpt><trkpt lat="45.3078547" lon="10.4714876"><ele>51.666666666666664</ele><time>2026-04-17T04:48:37.413Z</time></trkpt><trkpt lat="45.3076662" lon="10.4716058"><ele>52.0</ele><time>2026-04-17T04:48:38.412Z</time></trkpt><trkpt lat="45.3074796" lon="10.4717379"><ele>52.0</ele><time>2026-04-17T04:48:39.413Z</time></trkpt><trkpt lat="45.3072962" lon="10.4718664"><ele>52.0</ele><time>2026-04-17T04:48:40.413Z</time></trkpt><trkpt lat="45.3071139" lon="10.4719957"><ele>52.0</ele><time>2026-04-17T04:48:41.412Z</time></trkpt><trkpt lat="45.3069305" lon="10.4721164"><ele>51.666666666666664</ele><time>2026-04-17T04:48:42.413Z</time></trkpt><trkpt lat="45.3067428" lon="10.4722292"><ele>51.33333333333333</ele><time>2026-04-17T04:48:43.412Z</time></trkpt><trkpt lat="45.3065573" lon="10.472336"><ele>51.0</ele><time>2026-04-17T04:48:44.413Z</time></trkpt><trkpt lat="45.3063675" lon="10.4724378"><ele>50.33333333333333</ele><time>2026-04-17T04:48:45.413Z</time></trkpt><trkpt lat="45.306185" lon="10.4725423"><ele>49.666666666666664</ele><time>2026-04-17T04:48:46.412Z</time></trkpt><trkpt lat="45.3060056" lon="10.4726472"><ele>49.0</ele><time>2026-04-17T04:48:47.413Z</time></trkpt><trkpt lat="45.3058277" lon="10.4727568"><ele>49.0</ele><time>2026-04-17T04:48:48.412Z</time></trkpt><trkpt lat="45.3056509" lon="10.4728635"><ele>49.0</ele><time>2026-04-17T04:48:49.412Z</time></trkpt><trkpt lat="45.3054798" lon="10.4729639"><ele>49.0</ele><time>2026-04-17T04:48:50.412Z</time></trkpt><trkpt lat="45.3053096" lon="10.4730614"><ele>50.0</ele><time>2026-04-17T04:48:51.412Z</time></trkpt><trkpt lat="45.3051422" lon="10.4731543"><ele>51.0</ele><time>2026-04-17T04:48:52.413Z</time></trkpt><trkpt lat="45.3049829" lon="10.4732546"><ele>52.0</ele><time>2026-04-17T04:48:53.413Z</time></trkpt><trkpt lat="45.3048336" lon="10.4733589"><ele>52.0</ele><time>2026-04-17T04:48:54.413Z</time></trkpt><trkpt lat="45.3047045" lon="10.4734344"><ele>52.0</ele><time>2026-04-17T04:48:55.413Z</time></trkpt><trkpt lat="45.3045818" lon="10.4735116"><ele>52.0</ele><time>2026-04-17T04:48:56.412Z</time></trkpt><trkpt lat="45.3044729" lon="10.4735586"><ele>52.0</ele><time>2026-04-17T04:48:57.413Z</time></trkpt><trkpt lat="45.3043811" lon="10.4735865"><ele>51.99999999999999</ele><time>2026-04-17T04:48:58.412Z</time></trkpt><trkpt lat="45.3043164" lon="10.4735966"><ele>52.0</ele><time>2026-04-17T04:48:59.413Z</time></trkpt><trkpt lat="45.3042167" lon="10.4735667"><ele>52.0</ele><time>2026-04-17T04:49:01.413Z</time></trkpt><trkpt lat="45.3041011" lon="10.4735749"><ele>52.0</ele><time>2026-04-17T04:49:13.413Z</time></trkpt><trkpt lat="45.3040051" lon="10.4735674"><ele>51.99999999999999</ele><time>2026-04-17T04:49:15.413Z</time></trkpt><trkpt lat="45.30394" lon="10.4735622"><ele>52.0</ele><time>2026-04-17T04:49:16.412Z</time></trkpt><trkpt lat="45.303865" lon="10.4735546"><ele>52.0</ele><time>2026-04-17T04:49:17.412Z</time></trkpt><trkpt lat="45.3037792" lon="10.4735394"><ele>52.0</ele><time>2026-04-17T04:49:18.413Z</time></trkpt><trkpt lat="45.3036815" lon="10.4735258"><ele>52.0</ele><time>2026-04-17T04:49:19.412Z</time></trkpt><trkpt lat="45.3035778" lon="10.4735208"><ele>52.0</ele><time>2026-04-17T04:49:20.412Z</time></trkpt><trkpt lat="45.3034656" lon="10.473508"><ele>52.0</ele><time>2026-04-17T04:49:21.413Z</time></trkpt><trkpt lat="45.3033489" lon="10.4734975"><ele>52.0</ele><time>2026-04-17T04:49:22.413Z</time></trkpt><trkpt lat="45.3032224" lon="10.4734887"><ele>52.0</ele><time>2026-04-17T04:49:23.413Z</time></trkpt><trkpt lat="45.3030923" lon="10.4734766"><ele>52.0</ele><time>2026-04-17T04:49:24.413Z</time></trkpt><trkpt lat="45.3029531" lon="10.473468"><ele>52.0</ele><time>2026-04-17T04:49:25.413Z</time></trkpt><trkpt lat="45.3028103" lon="10.4734442"><ele>52.0</ele><time>2026-04-17T04:49:26.412Z</time></trkpt><trkpt lat="45.3026572" lon="10.4734279"><ele>52.0</ele><time>2026-04-17T04:49:27.413Z</time></trkpt><trkpt lat="45.3025088" lon="10.4734128"><ele>52.0</ele><time>2026-04-17T04:49:28.412Z</time></trkpt><trkpt lat="45.3023565" lon="10.4733971"><ele>52.0</ele><time>2026-04-17T04:49:29.412Z</time></trkpt><trkpt lat="45.3022018" lon="10.4733805"><ele>52.0</ele><time>2026-04-17T04:49:30.413Z</time></trkpt><trkpt lat="45.302047" lon="10.4733634"><ele>52.0</ele><time>2026-04-17T04:49:31.413Z</time></trkpt><trkpt lat="45.3019015" lon="10.4733496"><ele>52.0</ele><time>2026-04-17T04:49:32.412Z</time></trkpt><trkpt lat="45.3017527" lon="10.4733389"><ele>52.0</ele><time>2026-04-17T04:49:33.412Z</time></trkpt><trkpt lat="45.3016091" lon="10.4733297"><ele>52.0</ele><time>2026-04-17T04:49:34.412Z</time></trkpt><trkpt lat="45.3014704" lon="10.4733087"><ele>52.0</ele><time>2026-04-17T04:49:35.413Z</time></trkpt><trkpt lat="45.3013341" lon="10.4732785"><ele>52.0</ele><time>2026-04-17T04:49:36.412Z</time></trkpt><trkpt lat="45.3012057" lon="10.4732588"><ele>52.0</ele><time>2026-04-17T04:49:37.413Z</time></trkpt><trkpt lat="45.3010764" lon="10.4732432"><ele>52.0</ele><time>2026-04-17T04:49:38.412Z</time></trkpt><trkpt lat="45.3009539" lon="10.4732313"><ele>52.0</ele><time>2026-04-17T04:49:39.412Z</time></trkpt><trkpt lat="45.3008388" lon="10.4732243"><ele>52.0</ele><time>2026-04-17T04:49:40.412Z</time></trkpt><trkpt lat="45.3007233" lon="10.4732159"><ele>52.0</ele><time>2026-04-17T04:49:41.413Z</time></trkpt><trkpt lat="45.3006064" lon="10.4732064"><ele>52.0</ele><time>2026-04-17T04:49:42.412Z</time></trkpt><trkpt lat="45.3004954" lon="10.4731958"><ele>52.0</ele><time>2026-04-17T04:49:43.413Z</time></trkpt><trkpt lat="45.3003874" lon="10.4731802"><ele>51.8</ele><time>2026-04-17T04:49:44.412Z</time></trkpt><trkpt lat="45.3002894" lon="10.4731694"><ele>51.6</ele><time>2026-04-17T04:49:45.413Z</time></trkpt><trkpt lat="45.3002093" lon="10.4731566"><ele>51.4</ele><time>2026-04-17T04:49:46.412Z</time></trkpt><trkpt lat="45.300149" lon="10.4731293"><ele>51.199999999999996</ele><time>2026-04-17T04:49:47.412Z</time></trkpt><trkpt lat="45.3000885" lon="10.4730058"><ele>51.0</ele><time>2026-04-17T04:49:49.412Z</time></trkpt><trkpt lat="45.3000928" lon="10.4728282"><ele>51.0</ele><time>2026-04-17T04:49:51.413Z</time></trkpt><trkpt lat="45.3000842" lon="10.4727321"><ele>51.0</ele><time>2026-04-17T04:49:52.413Z</time></trkpt><trkpt lat="45.300066" lon="10.4726304"><ele>51.0</ele><time>2026-04-17T04:49:53.413Z</time></trkpt><trkpt lat="45.3000492" lon="10.4725232"><ele>51.0</ele><time>2026-04-17T04:49:54.413Z</time></trkpt><trkpt lat="45.3000385" lon="10.4724131"><ele>51.0</ele><time>2026-04-17T04:49:55.412Z</time></trkpt><trkpt lat="45.3000449" lon="10.4723089"><ele>51.0</ele><time>2026-04-17T04:49:56.413Z</time></trkpt><trkpt lat="45.3000771" lon="10.472202"><ele>51.4</ele><time>2026-04-17T04:49:57.412Z</time></trkpt><trkpt lat="45.3001231" lon="10.4720889"><ele>51.8</ele><time>2026-04-17T04:49:58.413Z</time></trkpt><trkpt lat="45.300172" lon="10.4719672"><ele>52.199999999999996</ele><time>2026-04-17T04:49:59.412Z</time></trkpt><trkpt lat="45.3002239" lon="10.4718305"><ele>52.599999999999994</ele><time>2026-04-17T04:50:00.413Z</time></trkpt><trkpt lat="45.3002786" lon="10.4716939"><ele>53.0</ele><time>2026-04-17T04:50:01.413Z</time></trkpt><trkpt lat="45.3003318" lon="10.4715509"><ele>53.0</ele><time>2026-04-17T04:50:02.413Z</time></trkpt><trkpt lat="45.3003844" lon="10.4714074"><ele>53.0</ele><time>2026-04-17T04:50:03.412Z</time></trkpt><trkpt lat="45.3004365" lon="10.4712681"><ele>53.0</ele><time>2026-04-17T04:50:04.412Z</time></trkpt><trkpt lat="45.3004891" lon="10.4711308"><ele>53.0</ele><time>2026-04-17T04:50:05.413Z</time></trkpt><trkpt lat="45.3005432" lon="10.4709872"><ele>53.0</ele><time>2026-04-17T04:50:06.413Z</time></trkpt><trkpt lat="45.3006003" lon="10.4708335"><ele>53.0</ele><time>2026-04-17T04:50:07.413Z</time></trkpt><trkpt lat="45.3006567" lon="10.470679"><ele>53.0</ele><time>2026-04-17T04:50:08.412Z</time></trkpt><trkpt lat="45.3007168" lon="10.470519"><ele>53.0</ele><time>2026-04-17T04:50:09.413Z</time></trkpt><trkpt lat="45.3007729" lon="10.4703634"><ele>53.0</ele><time>2026-04-17T04:50:10.413Z</time></trkpt><trkpt lat="45.3008289" lon="10.4702082"><ele>52.75</ele><time>2026-04-17T04:50:11.412Z</time></trkpt><trkpt lat="45.3008827" lon="10.4700505"><ele>52.5</ele><time>2026-04-17T04:50:12.413Z</time></trkpt><trkpt lat="45.3009382" lon="10.4698953"><ele>52.25</ele><time>2026-04-17T04:50:13.413Z</time></trkpt><trkpt lat="45.3009881" lon="10.4697381"><ele>52.0</ele><time>2026-04-17T04:50:14.413Z</time></trkpt><trkpt lat="45.3010516" lon="10.4695803"><ele>52.0</ele><time>2026-04-17T04:50:15.413Z</time></trkpt><trkpt lat="45.3011223" lon="10.4694344"><ele>52.0</ele><time>2026-04-17T04:50:16.413Z</time></trkpt><trkpt lat="45.301206" lon="10.4693023"><ele>52.0</ele><time>2026-04-17T04:50:17.413Z</time></trkpt><trkpt lat="45.3012984" lon="10.4691899"><ele>52.0</ele><time>2026-04-17T04:50:18.413Z</time></trkpt><trkpt lat="45.3014003" lon="10.4690779"><ele>52.0</ele><time>2026-04-17T04:50:19.412Z</time></trkpt><trkpt lat="45.3015108" lon="10.4689758"><ele>52.0</ele><time>2026-04-17T04:50:20.413Z</time></trkpt><trkpt lat="45.3016226" lon="10.4688724"><ele>52.0</ele><time>2026-04-17T04:50:21.412Z</time></trkpt><trkpt lat="45.3017354" lon="10.4687697"><ele>52.0</ele><time>2026-04-17T04:50:22.413Z</time></trkpt><trkpt lat="45.3018538" lon="10.468662"><ele>52.0</ele><time>2026-04-17T04:50:23.413Z</time></trkpt><trkpt lat="45.3019683" lon="10.4685496"><ele>52.0</ele><time>2026-04-17T04:50:24.412Z</time></trkpt><trkpt lat="45.3020905" lon="10.4684436"><ele>52.0</ele><time>2026-04-17T04:50:25.412Z</time></trkpt><trkpt lat="45.3022094" lon="10.4683372"><ele>52.0</ele><time>2026-04-17T04:50:26.413Z</time></trkpt><trkpt lat="45.3023345" lon="10.4682271"><ele>52.0</ele><time>2026-04-17T04:50:27.413Z</time></trkpt><trkpt lat="45.3024596" lon="10.4681179"><ele>52.0</ele><time>2026-04-17T04:50:28.413Z</time></trkpt><trkpt lat="45.3025819" lon="10.468003"><ele>52.0</ele><time>2026-04-17T04:50:29.412Z</time></trkpt><trkpt lat="45.3027039" lon="10.4678871"><ele>52.0</ele><time>2026-04-17T04:50:30.412Z</time></trkpt><trkpt lat="45.3028258" lon="10.4677783"><ele>52.25</ele><time>2026-04-17T04:50:31.413Z</time></trkpt><trkpt lat="45.3029402" lon="10.4676669"><ele>52.5</ele><time>2026-04-17T04:50:32.413Z</time></trkpt><trkpt lat="45.3030545" lon="10.4675626"><ele>52.75</ele><time>2026-04-17T04:50:33.413Z</time></trkpt><trkpt lat="45.3031667" lon="10.4674574"><ele>53.0</ele><time>2026-04-17T04:50:34.413Z</time></trkpt><trkpt lat="45.3032767" lon="10.4673602"><ele>53.2</ele><time>2026-04-17T04:50:35.413Z</time></trkpt><trkpt lat="45.3033802" lon="10.4672596"><ele>53.4</ele><time>2026-04-17T04:50:36.413Z</time></trkpt><trkpt lat="45.303479" lon="10.4671711"><ele>53.60000000000001</ele><time>2026-04-17T04:50:37.413Z</time></trkpt><trkpt lat="45.303564" lon="10.4670963"><ele>53.800000000000004</ele><time>2026-04-17T04:50:38.413Z</time></trkpt><trkpt lat="45.3036396" lon="10.4670312"><ele>54.0</ele><time>2026-04-17T04:50:39.412Z</time></trkpt><trkpt lat="45.3037033" lon="10.4669748"><ele>54.0</ele><time>2026-04-17T04:50:40.412Z</time></trkpt><trkpt lat="45.3037801" lon="10.4669106"><ele>54.0</ele><time>2026-04-17T04:50:42.412Z</time></trkpt><trkpt lat="45.3038432" lon="10.4668904"><ele>54.0</ele><time>2026-04-17T04:50:45.413Z</time></trkpt><trkpt lat="45.3039217" lon="10.4668054"><ele>54.0</ele><time>2026-04-17T04:50:55.412Z</time></trkpt><trkpt lat="45.3040231" lon="10.4667303"><ele>54.0</ele><time>2026-04-17T04:50:57.412Z</time></trkpt><trkpt lat="45.3040814" lon="10.4666635"><ele>54.0</ele><time>2026-04-17T04:50:58.413Z</time></trkpt><trkpt lat="45.3041362" lon="10.4665932"><ele>53.800000000000004</ele><time>2026-04-17T04:50:59.413Z</time></trkpt><trkpt lat="45.3042031" lon="10.4665209"><ele>53.60000000000001</ele><time>2026-04-17T04:51:00.412Z</time></trkpt><trkpt lat="45.3042794" lon="10.4664534"><ele>53.4</ele><time>2026-04-17T04:51:01.413Z</time></trkpt><trkpt lat="45.304367" lon="10.4663773"><ele>53.2</ele><time>2026-04-17T04:51:02.413Z</time></trkpt><trkpt lat="45.3044576" lon="10.4662961"><ele>53.0</ele><time>2026-04-17T04:51:03.413Z</time></trkpt><trkpt lat="45.3045466" lon="10.4661987"><ele>53.0</ele><time>2026-04-17T04:51:04.412Z</time></trkpt><trkpt lat="45.3046436" lon="10.4661083"><ele>53.0</ele><time>2026-04-17T04:51:05.413Z</time></trkpt><trkpt lat="45.3047356" lon="10.4660277"><ele>53.0</ele><time>2026-04-17T04:51:06.412Z</time></trkpt><trkpt lat="45.3048361" lon="10.4659557"><ele>53.0</ele><time>2026-04-17T04:51:07.412Z</time></trkpt><trkpt lat="45.3049411" lon="10.4659142"><ele>53.0</ele><time>2026-04-17T04:51:08.413Z</time></trkpt><trkpt lat="45.305055" lon="10.4658887"><ele>53.0</ele><time>2026-04-17T04:51:09.412Z</time></trkpt><trkpt lat="45.305175" lon="10.4658825"><ele>53.0</ele><time>2026-04-17T04:51:10.412Z</time></trkpt><trkpt lat="45.3053021" lon="10.4658915"><ele>53.0</ele><time>2026-04-17T04:51:11.412Z</time></trkpt><trkpt lat="45.3054288" lon="10.4659101"><ele>53.0</ele><time>2026-04-17T04:51:12.413Z</time></trkpt><trkpt lat="45.3055624" lon="10.4659189"><ele>52.75</ele><time>2026-04-17T04:51:13.413Z</time></trkpt><trkpt lat="45.3056951" lon="10.4659219"><ele>52.5</ele><time>2026-04-17T04:51:14.413Z</time></trkpt><trkpt lat="45.3058321" lon="10.4659352"><ele>52.25</ele><time>2026-04-17T04:51:15.412Z</time></trkpt><trkpt lat="45.3059723" lon="10.4659533"><ele>52.0</ele><time>2026-04-17T04:51:16.413Z</time></trkpt><trkpt lat="45.3061124" lon="10.4659639"><ele>52.0</ele><time>2026-04-17T04:51:17.413Z</time></trkpt><trkpt lat="45.3062541" lon="10.4659756"><ele>52.0</ele><time>2026-04-17T04:51:18.412Z</time></trkpt><trkpt lat="45.3063949" lon="10.4659849"><ele>52.0</ele><time>2026-04-17T04:51:19.412Z</time></trkpt><trkpt lat="45.3065354" lon="10.4659981"><ele>52.0</ele><time>2026-04-17T04:51:20.412Z</time></trkpt><trkpt lat="45.3066773" lon="10.4660069"><ele>51.75</ele><time>2026-04-17T04:51:21.413Z</time></trkpt><trkpt lat="45.3068152" lon="10.4660212"><ele>51.5</ele><time>2026-04-17T04:51:22.412Z</time></trkpt><trkpt lat="45.3069534" lon="10.4660296"><ele>51.25</ele><time>2026-04-17T04:51:23.413Z</time></trkpt><trkpt lat="45.3070895" lon="10.4660358"><ele>51.0</ele><time>2026-04-17T04:51:24.413Z</time></trkpt><trkpt lat="45.3072254" lon="10.4660453"><ele>51.0</ele><time>2026-04-17T04:51:25.412Z</time></trkpt><trkpt lat="45.3073635" lon="10.4660506"><ele>51.0</ele><time>2026-04-17T04:51:26.412Z</time></trkpt><trkpt lat="45.3074965" lon="10.4660403"><ele>51.0</ele><time>2026-04-17T04:51:27.413Z</time></trkpt><trkpt lat="45.307629" lon="10.4660212"><ele>51.0</ele><time>2026-04-17T04:51:28.413Z</time></trkpt><trkpt lat="45.3077534" lon="10.4659963"><ele>51.0</ele><time>2026-04-17T04:51:29.413Z</time></trkpt><trkpt lat="45.3078773" lon="10.4659563"><ele>51.0</ele><time>2026-04-17T04:51:30.412Z</time></trkpt><trkpt lat="45.3079952" lon="10.4659196"><ele>51.0</ele><time>2026-04-17T04:51:31.412Z</time></trkpt><trkpt lat="45.3081016" lon="10.4658748"><ele>51.0</ele><time>2026-04-17T04:51:32.413Z</time></trkpt><trkpt lat="45.3082059" lon="10.4658287"><ele>51.333333333333336</ele><time>2026-04-17T04:51:33.413Z</time></trkpt><trkpt lat="45.3083013" lon="10.4657927"><ele>51.66666666666667</ele><time>2026-04-17T04:51:34.412Z</time></trkpt><trkpt lat="45.3083721" lon="10.4657775"><ele>52.0</ele><time>2026-04-17T04:51:35.412Z</time></trkpt><trkpt lat="45.308437" lon="10.4658052"><ele>52.333333333333336</ele><time>2026-04-17T04:51:36.412Z</time></trkpt><trkpt lat="45.3085108" lon="10.4658594"><ele>52.66666666666667</ele><time>2026-04-17T04:51:37.412Z</time></trkpt><trkpt lat="45.3085887" lon="10.4659058"><ele>53.0</ele><time>2026-04-17T04:51:38.412Z</time></trkpt><trkpt lat="45.3086683" lon="10.4659605"><ele>53.00000000000001</ele><time>2026-04-17T04:51:39.412Z</time></trkpt><trkpt lat="45.3087442" lon="10.4660188"><ele>53.0</ele><time>2026-04-17T04:51:40.413Z</time></trkpt><trkpt lat="45.3088167" lon="10.4660838"><ele>53.0</ele><time>2026-04-17T04:51:41.413Z</time></trkpt><trkpt lat="45.3088806" lon="10.4661731"><ele>53.0</ele><time>2026-04-17T04:51:42.413Z</time></trkpt><trkpt lat="45.3089513" lon="10.4662578"><ele>53.00000000000001</ele><time>2026-04-17T04:51:43.412Z</time></trkpt><trkpt lat="45.3090111" lon="10.4663364"><ele>53.0</ele><time>2026-04-17T04:51:44.412Z</time></trkpt><trkpt lat="45.3090698" lon="10.4664045"><ele>52.85714285714286</ele><time>2026-04-17T04:51:45.412Z</time></trkpt><trkpt lat="45.3091309" lon="10.4664636"><ele>52.71428571428571</ele><time>2026-04-17T04:51:46.412Z</time></trkpt><trkpt lat="45.3091972" lon="10.4665038"><ele>52.57142857142857</ele><time>2026-04-17T04:51:47.413Z</time></trkpt><trkpt lat="45.3092741" lon="10.4665272"><ele>52.42857142857143</ele><time>2026-04-17T04:51:48.413Z</time></trkpt><trkpt lat="45.3093454" lon="10.4665516"><ele>52.28571428571429</ele><time>2026-04-17T04:51:49.413Z</time></trkpt><trkpt lat="45.3094151" lon="10.4665446"><ele>52.14285714285714</ele><time>2026-04-17T04:51:50.412Z</time></trkpt><trkpt lat="45.3094914" lon="10.4665364"><ele>52.0</ele><time>2026-04-17T04:51:51.413Z</time></trkpt><trkpt lat="45.3095943" lon="10.4665052"><ele>52.0</ele><time>2026-04-17T04:51:52.412Z</time></trkpt><trkpt lat="45.3096878" lon="10.466489"><ele>52.0</ele><time>2026-04-17T04:51:53.413Z</time></trkpt><trkpt lat="45.3097996" lon="10.466504"><ele>52.0</ele><time>2026-04-17T04:51:54.413Z</time></trkpt><trkpt lat="45.3099146" lon="10.4665032"><ele>52.0</ele><time>2026-04-17T04:51:55.413Z</time></trkpt><trkpt lat="45.3100293" lon="10.4665157"><ele>52.0</ele><time>2026-04-17T04:51:56.412Z</time></trkpt><trkpt lat="45.3101449" lon="10.4665323"><ele>52.0</ele><time>2026-04-17T04:51:57.413Z</time></trkpt><trkpt lat="45.3102615" lon="10.466552"><ele>52.0</ele><time>2026-04-17T04:51:58.413Z</time></trkpt><trkpt lat="45.3103768" lon="10.4665715"><ele>52.0</ele><time>2026-04-17T04:51:59.412Z</time></trkpt><trkpt lat="45.3104946" lon="10.4665919"><ele>52.0</ele><time>2026-04-17T04:52:00.412Z</time></trkpt><trkpt lat="45.3106134" lon="10.4666173"><ele>52.25</ele><time>2026-04-17T04:52:01.413Z</time></trkpt><trkpt lat="45.3107317" lon="10.4666407"><ele>52.5</ele><time>2026-04-17T04:52:02.413Z</time></trkpt><trkpt lat="45.3108503" lon="10.4666495"><ele>52.75</ele><time>2026-04-17T04:52:03.413Z</time></trkpt><trkpt lat="45.3109653" lon="10.4666434"><ele>53.0</ele><time>2026-04-17T04:52:04.413Z</time></trkpt><trkpt lat="45.3110802" lon="10.4666379"><ele>53.0</ele><time>2026-04-17T04:52:05.412Z</time></trkpt><trkpt lat="45.3111933" lon="10.4666261"><ele>53.0</ele><time>2026-04-17T04:52:06.413Z</time></trkpt><trkpt lat="45.3112991" lon="10.4666075"><ele>53.0</ele><time>2026-04-17T04:52:07.412Z</time></trkpt><trkpt lat="45.3113981" lon="10.4665885"><ele>53.0</ele><time>2026-04-17T04:52:08.413Z</time></trkpt><trkpt lat="45.3114852" lon="10.4665727"><ele>53.0</ele><time>2026-04-17T04:52:09.412Z</time></trkpt><trkpt lat="45.3115517" lon="10.4665617"><ele>53.00000000000001</ele><time>2026-04-17T04:52:10.413Z</time></trkpt><trkpt lat="45.3116292" lon="10.4666022"><ele>53.0</ele><time>2026-04-17T04:52:12.412Z</time></trkpt><trkpt lat="45.3116328" lon="10.4667003"><ele>53.0</ele><time>2026-04-17T04:52:14.413Z</time></trkpt><trkpt lat="45.3116063" lon="10.4668208"><ele>53.0</ele><time>2026-04-17T04:52:16.413Z</time></trkpt><trkpt lat="45.3115832" lon="10.4669467"><ele>53.00000000000001</ele><time>2026-04-17T04:52:18.413Z</time></trkpt><trkpt lat="45.3115666" lon="10.4670432"><ele>53.0</ele><time>2026-04-17T04:52:21.413Z</time></trkpt><trkpt lat="45.3115641" lon="10.4671395"><ele>52.599999999999994</ele><time>2026-04-17T04:52:27.412Z</time></trkpt><trkpt lat="45.3115692" lon="10.4672591"><ele>52.199999999999996</ele><time>2026-04-17T04:52:29.412Z</time></trkpt><trkpt lat="45.3115642" lon="10.4674256"><ele>51.8</ele><time>2026-04-17T04:52:31.413Z</time></trkpt><trkpt lat="45.3115645" lon="10.4675375"><ele>51.4</ele><time>2026-04-17T04:52:32.412Z</time></trkpt><trkpt lat="45.3115662" lon="10.4676639"><ele>51.0</ele><time>2026-04-17T04:52:33.412Z</time></trkpt><trkpt lat="45.3115672" lon="10.4677943"><ele>51.0</ele><time>2026-04-17T04:52:34.413Z</time></trkpt><trkpt lat="45.311568" lon="10.4679312"><ele>51.0</ele><time>2026-04-17T04:52:35.413Z</time></trkpt><trkpt lat="45.3115664" lon="10.4680605"><ele>51.0</ele><time>2026-04-17T04:52:36.412Z</time></trkpt><trkpt lat="45.3115636" lon="10.4681927"><ele>51.0</ele><time>2026-04-17T04:52:37.413Z</time></trkpt><trkpt lat="45.3115602" lon="10.4683192"><ele>51.0</ele><time>2026-04-17T04:52:38.412Z</time></trkpt><trkpt lat="45.3115682" lon="10.468447"><ele>50.8</ele><time>2026-04-17T04:52:39.413Z</time></trkpt><trkpt lat="45.3115941" lon="10.4685666"><ele>50.599999999999994</ele><time>2026-04-17T04:52:40.413Z</time></trkpt><trkpt lat="45.3116438" lon="10.4686797"><ele>50.4</ele><time>2026-04-17T04:52:41.412Z</time></trkpt><trkpt lat="45.3117125" lon="10.4687794"><ele>50.2</ele><time>2026-04-17T04:52:42.413Z</time></trkpt><trkpt lat="45.3117838" lon="10.468871"><ele>50.0</ele><time>2026-04-17T04:52:43.413Z</time></trkpt><trkpt lat="45.3118625" lon="10.46897"><ele>50.0</ele><time>2026-04-17T04:52:44.413Z</time></trkpt><trkpt lat="45.311948" lon="10.4690728"><ele>50.0</ele><time>2026-04-17T04:52:45.412Z</time></trkpt><trkpt lat="45.3120303" lon="10.4691762"><ele>50.0</ele><time>2026-04-17T04:52:46.413Z</time></trkpt><trkpt lat="45.3121122" lon="10.4692824"><ele>50.0</ele><time>2026-04-17T04:52:47.413Z</time></trkpt><trkpt lat="45.3121884" lon="10.4694039"><ele>50.0</ele><time>2026-04-17T04:52:48.413Z</time></trkpt><trkpt lat="45.3122621" lon="10.4695169"><ele>49.66666666666667</ele><time>2026-04-17T04:52:49.412Z</time></trkpt><trkpt lat="45.3123381" lon="10.4696204"><ele>49.333333333333336</ele><time>2026-04-17T04:52:50.413Z</time></trkpt><trkpt lat="45.3124071" lon="10.4697147"><ele>49.0</ele><time>2026-04-17T04:52:51.413Z</time></trkpt><trkpt lat="45.3124669" lon="10.4698033"><ele>48.66666666666667</ele><time>2026-04-17T04:52:52.413Z</time></trkpt><trkpt lat="45.3125" lon="10.4698882"><ele>48.333333333333336</ele><time>2026-04-17T04:52:53.413Z</time></trkpt><trkpt lat="45.3125037" lon="10.4699871"><ele>48.0</ele><time>2026-04-17T04:52:54.412Z</time></trkpt><trkpt lat="45.312496" lon="10.4700975"><ele>48.0</ele><time>2026-04-17T04:52:55.412Z</time></trkpt><trkpt lat="45.3124736" lon="10.4701915"><ele>48.0</ele><time>2026-04-17T04:52:56.412Z</time></trkpt><trkpt lat="45.3124421" lon="10.4703001"><ele>48.0</ele><time>2026-04-17T04:52:57.413Z</time></trkpt><trkpt lat="45.3124144" lon="10.4704165"><ele>48.0</ele><time>2026-04-17T04:52:58.412Z</time></trkpt><trkpt lat="45.3123894" lon="10.4705373"><ele>48.0</ele><time>2026-04-17T04:52:59.412Z</time></trkpt><trkpt lat="45.3123692" lon="10.4706485"><ele>48.0</ele><time>2026-04-17T04:53:00.413Z</time></trkpt><trkpt lat="45.3123517" lon="10.4707459"><ele>48.166666666666664</ele><time>2026-04-17T04:53:01.412Z</time></trkpt><trkpt lat="45.3123376" lon="10.4708559"><ele>48.33333333333333</ele><time>2026-04-17T04:53:03.413Z</time></trkpt><trkpt lat="45.3123728" lon="10.4709538"><ele>48.5</ele><time>2026-04-17T04:53:07.413Z</time></trkpt><trkpt lat="45.31247" lon="10.4709814"><ele>48.666666666666664</ele><time>2026-04-17T04:53:09.413Z</time></trkpt><trkpt lat="45.3125363" lon="10.470985"><ele>48.83333333333333</ele><time>2026-04-17T04:53:10.413Z</time></trkpt><trkpt lat="45.3126182" lon="10.4709938"><ele>49.0</ele><time>2026-04-17T04:53:11.413Z</time></trkpt><trkpt lat="45.3127162" lon="10.4710059"><ele>49.0</ele><time>2026-04-17T04:53:12.413Z</time></trkpt><trkpt lat="45.3128208" lon="10.4710218"><ele>49.0</ele><time>2026-04-17T04:53:13.413Z</time></trkpt><trkpt lat="45.3129358" lon="10.4710378"><ele>49.0</ele><time>2026-04-17T04:53:14.413Z</time></trkpt><trkpt lat="45.3130598" lon="10.4710525"><ele>49.0</ele><time>2026-04-17T04:53:15.413Z</time></trkpt><trkpt lat="45.3131925" lon="10.4710692"><ele>49.5</ele><time>2026-04-17T04:53:16.413Z</time></trkpt><trkpt lat="45.3133321" lon="10.4710863"><ele>50.0</ele><time>2026-04-17T04:53:17.412Z</time></trkpt><trkpt lat="45.3134739" lon="10.4711012"><ele>50.5</ele><time>2026-04-17T04:53:18.413Z</time></trkpt><trkpt lat="45.3136175" lon="10.471117"><ele>51.0</ele><time>2026-04-17T04:53:19.413Z</time></trkpt><trkpt lat="45.3137636" lon="10.4711362"><ele>51.0</ele><time>2026-04-17T04:53:20.413Z</time></trkpt><trkpt lat="45.3139128" lon="10.4711554"><ele>51.0</ele><time>2026-04-17T04:53:21.412Z</time></trkpt><trkpt lat="45.3140656" lon="10.4711754"><ele>51.0</ele><time>2026-04-17T04:53:22.412Z</time></trkpt><trkpt lat="45.3142224" lon="10.4711942"><ele>51.0</ele><time>2026-04-17T04:53:23.412Z</time></trkpt><trkpt lat="45.3143812" lon="10.4712112"><ele>51.0</ele><time>2026-04-17T04:53:24.412Z</time></trkpt><trkpt lat="45.3145445" lon="10.4712325"><ele>51.0</ele><time>2026-04-17T04:53:25.413Z</time></trkpt><trkpt lat="45.3147111" lon="10.4712523"><ele>51.0</ele><time>2026-04-17T04:53:26.413Z</time></trkpt><trkpt lat="45.3148783" lon="10.4712712"><ele>51.0</ele><time>2026-04-17T04:53:27.413Z</time></trkpt><trkpt lat="45.3150441" lon="10.471288"><ele>51.0</ele><time>2026-04-17T04:53:28.413Z</time></trkpt><trkpt lat="45.3152055" lon="10.4713065"><ele>51.0</ele><time>2026-04-17T04:53:29.412Z</time></trkpt><trkpt lat="45.3153652" lon="10.4713265"><ele>51.0</ele><time>2026-04-17T04:53:30.412Z</time></trkpt><trkpt lat="45.3155257" lon="10.4713487"><ele>51.0</ele><time>2026-04-17T04:53:31.413Z</time></trkpt><trkpt lat="45.3156867" lon="10.4713696"><ele>51.33333333333333</ele><time>2026-04-17T04:53:32.412Z</time></trkpt><trkpt lat="45.3158453" lon="10.4713945"><ele>51.666666666666664</ele><time>2026-04-17T04:53:33.413Z</time></trkpt><trkpt lat="45.3160023" lon="10.4714194"><ele>52.0</ele><time>2026-04-17T04:53:34.413Z</time></trkpt><trkpt lat="45.3161643" lon="10.4714417"><ele>52.0</ele><time>2026-04-17T04:53:35.412Z</time></trkpt><trkpt lat="45.3163224" lon="10.4714607"><ele>52.0</ele><time>2026-04-17T04:53:36.412Z</time></trkpt><trkpt lat="45.3164804" lon="10.4714829"><ele>52.0</ele><time>2026-04-17T04:53:37.413Z</time></trkpt><trkpt lat="45.316638" lon="10.4714992"><ele>52.0</ele><time>2026-04-17T04:53:38.413Z</time></trkpt><trkpt lat="45.3167999" lon="10.4715229"><ele>52.0</ele><time>2026-04-17T04:53:39.412Z</time></trkpt><trkpt lat="45.3169604" lon="10.4715424"><ele>52.0</ele><time>2026-04-17T04:53:40.412Z</time></trkpt><trkpt lat="45.3171205" lon="10.4715624"><ele>52.33333333333333</ele><time>2026-04-17T04:53:41.413Z</time></trkpt><trkpt lat="45.3172816" lon="10.4715839"><ele>52.66666666666667</ele><time>2026-04-17T04:53:42.413Z</time></trkpt><trkpt lat="45.3174402" lon="10.4716049"><ele>53.0</ele><time>2026-04-17T04:53:43.413Z</time></trkpt><trkpt lat="45.3176014" lon="10.4716271"><ele>53.0</ele><time>2026-04-17T04:53:44.412Z</time></trkpt><trkpt lat="45.3177605" lon="10.4716461"><ele>53.0</ele><time>2026-04-17T04:53:45.412Z</time></trkpt><trkpt lat="45.3179266" lon="10.4716608"><ele>53.0</ele><time>2026-04-17T04:53:46.412Z</time></trkpt><trkpt lat="45.3180925" lon="10.4716721"><ele>53.0</ele><time>2026-04-17T04:53:47.413Z</time></trkpt><trkpt lat="45.3182604" lon="10.4716904"><ele>53.0</ele><time>2026-04-17T04:53:48.412Z</time></trkpt><trkpt lat="45.318429" lon="10.4717056"><ele>53.0</ele><time>2026-04-17T04:53:49.413Z</time></trkpt><trkpt lat="45.3185982" lon="10.4717219"><ele>53.0</ele><time>2026-04-17T04:53:50.413Z</time></trkpt><trkpt lat="45.3187632" lon="10.4717395"><ele>53.0</ele><time>2026-04-17T04:53:51.412Z</time></trkpt><trkpt lat="45.318932" lon="10.471758"><ele>53.0</ele><time>2026-04-17T04:53:52.412Z</time></trkpt><trkpt lat="45.3190964" lon="10.4717783"><ele>53.0</ele><time>2026-04-17T04:53:53.412Z</time></trkpt><trkpt lat="45.3192622" lon="10.4717971"><ele>53.0</ele><time>2026-04-17T04:53:54.412Z</time></trkpt><trkpt lat="45.319425" lon="10.4718192"><ele>53.0</ele><time>2026-04-17T04:53:55.412Z</time></trkpt><trkpt lat="45.3195847" lon="10.4718431"><ele>53.333333333333336</ele><time>2026-04-17T04:53:56.412Z</time></trkpt><trkpt lat="45.3197443" lon="10.4718725"><ele>53.66666666666667</ele><time>2026-04-17T04:53:57.413Z</time></trkpt><trkpt lat="45.3199046" lon="10.4718931"><ele>54.0</ele><time>2026-04-17T04:53:58.412Z</time></trkpt><trkpt lat="45.320064" lon="10.4719107"><ele>54.0</ele><time>2026-04-17T04:53:59.412Z</time></trkpt><trkpt lat="45.320223" lon="10.4719288"><ele>54.0</ele><time>2026-04-17T04:54:00.412Z</time></trkpt><trkpt lat="45.3203823" lon="10.4719511"><ele>54.0</ele><time>2026-04-17T04:54:01.413Z</time></trkpt><trkpt lat="45.320541" lon="10.4719713"><ele>54.0</ele><time>2026-04-17T04:54:02.412Z</time></trkpt><trkpt lat="45.3206938" lon="10.4719872"><ele>54.0</ele><time>2026-04-17T04:54:03.413Z</time></trkpt><trkpt lat="45.3208401" lon="10.4720064"><ele>54.0</ele><time>2026-04-17T04:54:04.413Z</time></trkpt><trkpt lat="45.3209769" lon="10.4720233"><ele>54.0</ele><time>2026-04-17T04:54:05.412Z</time></trkpt><trkpt lat="45.3211113" lon="10.4720413"><ele>54.0</ele><time>2026-04-17T04:54:06.413Z</time></trkpt><trkpt lat="45.3212366" lon="10.4720608"><ele>54.00000000000001</ele><time>2026-04-17T04:54:07.412Z</time></trkpt><trkpt lat="45.3213479" lon="10.4720732"><ele>54.00000000000001</ele><time>2026-04-17T04:54:08.413Z</time></trkpt><trkpt lat="45.3214419" lon="10.4720865"><ele>54.0</ele><time>2026-04-17T04:54:09.412Z</time></trkpt><trkpt lat="45.3215265" lon="10.4721014"><ele>54.0</ele><time>2026-04-17T04:54:10.413Z</time></trkpt><trkpt lat="45.3215934" lon="10.4721254"><ele>54.333333333333336</ele><time>2026-04-17T04:54:11.412Z</time></trkpt><trkpt lat="45.3216503" lon="10.4722325"><ele>54.66666666666667</ele><time>2026-04-17T04:54:13.413Z</time></trkpt><trkpt lat="45.3216165" lon="10.4723769"><ele>55.0</ele><time>2026-04-17T04:54:15.412Z</time></trkpt><trkpt lat="45.32158" lon="10.4724517"><ele>55.333333333333336</ele><time>2026-04-17T04:54:16.413Z</time></trkpt><trkpt lat="45.3215313" lon="10.4725446"><ele>55.66666666666667</ele><time>2026-04-17T04:54:17.412Z</time></trkpt><trkpt lat="45.3214843" lon="10.4726596"><ele>56.0</ele><time>2026-04-17T04:54:18.412Z</time></trkpt><trkpt lat="45.321438" lon="10.4727874"><ele>55.8</ele><time>2026-04-17T04:54:19.413Z</time></trkpt><trkpt lat="45.3213928" lon="10.4729194"><ele>55.599999999999994</ele><time>2026-04-17T04:54:20.413Z</time></trkpt><trkpt lat="45.3213541" lon="10.4730609"><ele>55.4</ele><time>2026-04-17T04:54:21.413Z</time></trkpt><trkpt lat="45.3213148" lon="10.4732067"><ele>55.2</ele><time>2026-04-17T04:54:22.412Z</time></trkpt><trkpt lat="45.3212677" lon="10.4733705"><ele>55.0</ele><time>2026-04-17T04:54:23.413Z</time></trkpt><trkpt lat="45.3212162" lon="10.4735405"><ele>55.0</ele><time>2026-04-17T04:54:24.413Z</time></trkpt><trkpt lat="45.3211661" lon="10.4737108"><ele>55.0</ele><time>2026-04-17T04:54:25.413Z</time></trkpt><trkpt lat="45.3211157" lon="10.47388"><ele>55.0</ele><time>2026-04-17T04:54:26.413Z</time></trkpt><trkpt lat="45.3210639" lon="10.4740533"><ele>55.0</ele><time>2026-04-17T04:54:27.412Z</time></trkpt><trkpt lat="45.3210121" lon="10.4742222"><ele>55.0</ele><time>2026-04-17T04:54:28.412Z</time></trkpt><trkpt lat="45.3209629" lon="10.4743974"><ele>55.0</ele><time>2026-04-17T04:54:29.412Z</time></trkpt><trkpt lat="45.3209115" lon="10.4745707"><ele>55.0</ele><time>2026-04-17T04:54:30.413Z</time></trkpt><trkpt lat="45.3208619" lon="10.4747394"><ele>55.0</ele><time>2026-04-17T04:54:31.412Z</time></trkpt><trkpt lat="45.3208113" lon="10.4749067"><ele>55.0</ele><time>2026-04-17T04:54:32.413Z</time></trkpt><trkpt lat="45.3207614" lon="10.4750723"><ele>55.0</ele><time>2026-04-17T04:54:33.413Z</time></trkpt><trkpt lat="45.3207093" lon="10.4752376"><ele>55.0</ele><time>2026-04-17T04:54:34.412Z</time></trkpt><trkpt lat="45.3206632" lon="10.4753969"><ele>55.0</ele><time>2026-04-17T04:54:35.413Z</time></trkpt><trkpt lat="45.320616" lon="10.4755608"><ele>55.25</ele><time>2026-04-17T04:54:36.412Z</time></trkpt><trkpt lat="45.3205711" lon="10.4757208"><ele>55.5</ele><time>2026-04-17T04:54:37.413Z</time></trkpt><trkpt lat="45.3205287" lon="10.4758809"><ele>55.75</ele><time>2026-04-17T04:54:38.412Z</time></trkpt><trkpt lat="45.3204851" lon="10.4760367"><ele>56.0</ele><time>2026-04-17T04:54:39.413Z</time></trkpt><trkpt lat="45.3204397" lon="10.4761893"><ele>56.0</ele><time>2026-04-17T04:54:40.412Z</time></trkpt><trkpt lat="45.3203933" lon="10.4763478"><ele>56.0</ele><time>2026-04-17T04:54:41.413Z</time></trkpt><trkpt lat="45.3203459" lon="10.4765007"><ele>56.0</ele><time>2026-04-17T04:54:42.412Z</time></trkpt><trkpt lat="45.3203028" lon="10.4766508"><ele>56.0</ele><time>2026-04-17T04:54:43.412Z</time></trkpt><trkpt lat="45.3202615" lon="10.4767919"><ele>56.0</ele><time>2026-04-17T04:54:44.413Z</time></trkpt><trkpt lat="45.3202205" lon="10.4769288"><ele>55.99999999999999</ele><time>2026-04-17T04:54:45.413Z</time></trkpt><trkpt lat="45.3201802" lon="10.4770614"><ele>55.99999999999999</ele><time>2026-04-17T04:54:46.413Z</time></trkpt><trkpt lat="45.3201421" lon="10.4771916"><ele>56.0</ele><time>2026-04-17T04:54:47.413Z</time></trkpt><trkpt lat="45.3201105" lon="10.4773158"><ele>56.0</ele><time>2026-04-17T04:54:48.412Z</time></trkpt><trkpt lat="45.3200842" lon="10.4774334"><ele>55.833333333333336</ele><time>2026-04-17T04:54:49.412Z</time></trkpt><trkpt lat="45.3200525" lon="10.4775148"><ele>55.66666666666667</ele><time>2026-04-17T04:54:50.413Z</time></trkpt><trkpt lat="45.3199679" lon="10.4775445"><ele>55.5</ele><time>2026-04-17T04:54:52.413Z</time></trkpt><trkpt lat="45.3198444" lon="10.4775046"><ele>55.33333333333333</ele><time>2026-04-17T04:54:54.413Z</time></trkpt><trkpt lat="45.3197695" lon="10.4774718"><ele>55.166666666666664</ele><time>2026-04-17T04:54:55.413Z</time></trkpt><trkpt lat="45.3196914" lon="10.4774436"><ele>55.0</ele><time>2026-04-17T04:54:56.413Z</time></trkpt><trkpt lat="45.3196072" lon="10.4774204"><ele>54.4</ele><time>2026-04-17T04:54:57.412Z</time></trkpt><trkpt lat="45.3195227" lon="10.477393"><ele>53.8</ele><time>2026-04-17T04:54:58.412Z</time></trkpt><trkpt lat="45.3194329" lon="10.4773749"><ele>53.2</ele><time>2026-04-17T04:54:59.412Z</time></trkpt><trkpt lat="45.3193451" lon="10.4773756"><ele>52.6</ele><time>2026-04-17T04:55:00.413Z</time></trkpt><trkpt lat="45.3192561" lon="10.4774163"><ele>52.0</ele><time>2026-04-17T04:55:01.413Z</time></trkpt><trkpt lat="45.3191785" lon="10.4774846"><ele>52.0</ele><time>2026-04-17T04:55:02.412Z</time></trkpt><trkpt lat="45.3191184" lon="10.4775902"><ele>52.0</ele><time>2026-04-17T04:55:03.412Z</time></trkpt><trkpt lat="45.3190626" lon="10.4776999"><ele>52.0</ele><time>2026-04-17T04:55:04.412Z</time></trkpt><trkpt lat="45.3190058" lon="10.4777989"><ele>52.0</ele><time>2026-04-17T04:55:05.412Z</time></trkpt><trkpt lat="45.3189374" lon="10.4779041"><ele>52.0</ele><time>2026-04-17T04:55:06.412Z</time></trkpt><trkpt lat="45.3188661" lon="10.4780152"><ele>52.2</ele><time>2026-04-17T04:55:07.412Z</time></trkpt><trkpt lat="45.3187934" lon="10.4781286"><ele>52.400000000000006</ele><time>2026-04-17T04:55:08.412Z</time></trkpt><trkpt lat="45.3187159" lon="10.4782393"><ele>52.599999999999994</ele><time>2026-04-17T04:55:09.413Z</time></trkpt><trkpt lat="45.3186384" lon="10.4783536"><ele>52.8</ele><time>2026-04-17T04:55:10.412Z</time></trkpt><trkpt lat="45.3185638" lon="10.4784637"><ele>53.0</ele><time>2026-04-17T04:55:11.413Z</time></trkpt><trkpt lat="45.3184895" lon="10.478574"><ele>53.0</ele><time>2026-04-17T04:55:12.413Z</time></trkpt><trkpt lat="45.3184207" lon="10.4786739"><ele>53.0</ele><time>2026-04-17T04:55:13.412Z</time></trkpt><trkpt lat="45.3183532" lon="10.4787748"><ele>53.0</ele><time>2026-04-17T04:55:14.413Z</time></trkpt><trkpt lat="45.3182882" lon="10.4788554"><ele>53.0</ele><time>2026-04-17T04:55:15.412Z</time></trkpt><trkpt lat="45.3182371" lon="10.4789291"><ele>53.0</ele><time>2026-04-17T04:55:16.412Z</time></trkpt><trkpt lat="45.3181775" lon="10.4790354"><ele>53.66666666666667</ele><time>2026-04-17T04:55:18.412Z</time></trkpt><trkpt lat="45.31817" lon="10.479141"><ele>54.333333333333336</ele><time>2026-04-17T04:55:21.412Z</time></trkpt><trkpt lat="45.3182418" lon="10.4791781"><ele>55.0</ele><time>2026-04-17T04:55:54.413Z</time></trkpt><trkpt lat="45.3183264" lon="10.4792"><ele>55.66666666666667</ele><time>2026-04-17T04:55:57.412Z</time></trkpt><trkpt lat="45.318435" lon="10.4792179"><ele>56.333333333333336</ele><time>2026-04-17T04:55:59.412Z</time></trkpt><trkpt lat="45.3185342" lon="10.4792464"><ele>57.0</ele><time>2026-04-17T04:56:01.412Z</time></trkpt><trkpt lat="45.3186092" lon="10.4792647"><ele>57.0</ele><time>2026-04-17T04:56:03.412Z</time></trkpt><trkpt lat="45.318671" lon="10.4792045"><ele>57.0</ele><time>2026-04-17T04:56:06.413Z</time></trkpt></trkseg></trk></gpx>